sensor_id;sensor_type;location;lat;lon;timestamp;temperature;humidity
6270;DHT22;3168;51.684;6.954;2023-05-07T00:01:24;14.50;46.70
6270;DHT22;3168;51.684;6.954;2023-05-07T00:03:50;14.50;46.70
6270;DHT22;3168;51.684;6.954;2023-05-07T00:06:16;14.50;46.30
6270;DHT22;3168;51.684;6.954;2023-05-07T00:08:41;14.50;46.60
6270;DHT22;3168;51.684;6.954;2023-05-07T00:11:07;14.50;46.60
6270;DHT22;3168;51.684;6.954;2023-05-07T00:13:33;14.40;47.30
6270;DHT22;3168;51.684;6.954;2023-05-07T00:15:59;14.50;49.90
6270;DHT22;3168;51.684;6.954;2023-05-07T00:18:25;14.50;48.30
6270;DHT22;3168;51.684;6.954;2023-05-07T00:20:50;14.50;49.00
6270;DHT22;3168;51.684;6.954;2023-05-07T00:23:16;14.50;52.10
6270;DHT22;3168;51.684;6.954;2023-05-07T00:25:42;14.70;51.30
6270;DHT22;3168;51.684;6.954;2023-05-07T00:28:08;14.70;46.80
6270;DHT22;3168;51.684;6.954;2023-05-07T00:30:34;14.70;42.30
6270;DHT22;3168;51.684;6.954;2023-05-07T00:33:01;14.60;42.20
6270;DHT22;3168;51.684;6.954;2023-05-07T00:35:28;14.60;42.10
6270;DHT22;3168;51.684;6.954;2023-05-07T00:37:52;14.60;44.60
6270;DHT22;3168;51.684;6.954;2023-05-07T00:40:18;14.60;44.60
6270;DHT22;3168;51.684;6.954;2023-05-07T00:42:44;14.60;42.90
6270;DHT22;3168;51.684;6.954;2023-05-07T00:45:10;14.50;43.30
6270;DHT22;3168;51.684;6.954;2023-05-07T00:47:36;14.30;47.80
6270;DHT22;3168;51.684;6.954;2023-05-07T00:50:02;14.40;53.10
6270;DHT22;3168;51.684;6.954;2023-05-07T00:52:28;14.40;54.40
6270;DHT22;3168;51.684;6.954;2023-05-07T00:54:54;14.50;51.20
6270;DHT22;3168;51.684;6.954;2023-05-07T00:57:20;14.50;42.40
6270;DHT22;3168;51.684;6.954;2023-05-07T00:59:45;14.30;45.50
6270;DHT22;3168;51.684;6.954;2023-05-07T01:02:11;14.40;51.30
6270;DHT22;3168;51.684;6.954;2023-05-07T01:04:37;14.40;48.00
6270;DHT22;3168;51.684;6.954;2023-05-07T01:07:03;14.30;50.20
6270;DHT22;3168;51.684;6.954;2023-05-07T01:09:29;14.30;52.60
6270;DHT22;3168;51.684;6.954;2023-05-07T01:11:55;14.40;51.30
6270;DHT22;3168;51.684;6.954;2023-05-07T01:14:22;14.40;51.40
6270;DHT22;3168;51.684;6.954;2023-05-07T01:16:48;14.40;51.20
6270;DHT22;3168;51.684;6.954;2023-05-07T01:19:13;14.40;49.10
6270;DHT22;3168;51.684;6.954;2023-05-07T01:21:39;14.40;50.40
6270;DHT22;3168;51.684;6.954;2023-05-07T01:24:05;14.30;53.20
6270;DHT22;3168;51.684;6.954;2023-05-07T01:26:31;14.40;55.80
6270;DHT22;3168;51.684;6.954;2023-05-07T01:28:57;14.40;52.20
6270;DHT22;3168;51.684;6.954;2023-05-07T01:31:23;14.30;53.80
6270;DHT22;3168;51.684;6.954;2023-05-07T01:33:48;14.30;55.60
6270;DHT22;3168;51.684;6.954;2023-05-07T01:36:14;14.30;54.50
6270;DHT22;3168;51.684;6.954;2023-05-07T01:38:40;14.30;55.40
6270;DHT22;3168;51.684;6.954;2023-05-07T01:41:06;14.20;56.60
6270;DHT22;3168;51.684;6.954;2023-05-07T01:43:32;14.20;57.80
6270;DHT22;3168;51.684;6.954;2023-05-07T01:45:57;14.30;60.40
6270;DHT22;3168;51.684;6.954;2023-05-07T01:48:24;14.20;60.20
6270;DHT22;3168;51.684;6.954;2023-05-07T01:50:49;14.30;64.30
6270;DHT22;3168;51.684;6.954;2023-05-07T01:53:15;14.40;63.10
6270;DHT22;3168;51.684;6.954;2023-05-07T01:55:41;14.50;57.10
6270;DHT22;3168;51.684;6.954;2023-05-07T01:58:07;14.50;49.40
6270;DHT22;3168;51.684;6.954;2023-05-07T02:00:33;14.50;50.10
6270;DHT22;3168;51.684;6.954;2023-05-07T02:02:58;14.50;45.20
6270;DHT22;3168;51.684;6.954;2023-05-07T02:05:24;14.40;49.60
6270;DHT22;3168;51.684;6.954;2023-05-07T02:07:50;14.30;52.50
6270;DHT22;3168;51.684;6.954;2023-05-07T02:10:16;14.30;53.70
6270;DHT22;3168;51.684;6.954;2023-05-07T02:12:42;14.20;58.20
6270;DHT22;3168;51.684;6.954;2023-05-07T02:15:08;14.30;59.30
6270;DHT22;3168;51.684;6.954;2023-05-07T02:17:34;14.40;59.10
6270;DHT22;3168;51.684;6.954;2023-05-07T02:20:00;14.40;55.80
6270;DHT22;3168;51.684;6.954;2023-05-07T02:22:26;14.30;55.60
6270;DHT22;3168;51.684;6.954;2023-05-07T02:24:51;14.30;55.70
6270;DHT22;3168;51.684;6.954;2023-05-07T02:27:17;14.30;59.10
6270;DHT22;3168;51.684;6.954;2023-05-07T02:29:44;14.30;60.00
6270;DHT22;3168;51.684;6.954;2023-05-07T02:32:09;14.30;59.70
6270;DHT22;3168;51.684;6.954;2023-05-07T02:34:35;14.30;63.70
6270;DHT22;3168;51.684;6.954;2023-05-07T02:37:01;14.50;60.70
6270;DHT22;3168;51.684;6.954;2023-05-07T02:39:27;14.40;51.70
6270;DHT22;3168;51.684;6.954;2023-05-07T02:41:52;14.60;52.00
6270;DHT22;3168;51.684;6.954;2023-05-07T02:44:18;14.50;46.70
6270;DHT22;3168;51.684;6.954;2023-05-07T02:46:44;14.40;46.80
6270;DHT22;3168;51.684;6.954;2023-05-07T02:49:10;14.40;49.60
6270;DHT22;3168;51.684;6.954;2023-05-07T02:51:36;14.30;50.90
6270;DHT22;3168;51.684;6.954;2023-05-07T02:54:02;14.20;54.70
6270;DHT22;3168;51.684;6.954;2023-05-07T02:56:28;14.20;56.70
6270;DHT22;3168;51.684;6.954;2023-05-07T02:58:53;14.20;57.70
6270;DHT22;3168;51.684;6.954;2023-05-07T03:01:19;14.10;59.60
6270;DHT22;3168;51.684;6.954;2023-05-07T03:03:45;14.20;65.10
6270;DHT22;3168;51.684;6.954;2023-05-07T03:06:11;14.20;64.20
6270;DHT22;3168;51.684;6.954;2023-05-07T03:08:37;14.20;60.10
6270;DHT22;3168;51.684;6.954;2023-05-07T03:11:03;14.20;60.00
6270;DHT22;3168;51.684;6.954;2023-05-07T03:13:28;14.20;59.60
6270;DHT22;3168;51.684;6.954;2023-05-07T03:15:54;14.20;60.10
6270;DHT22;3168;51.684;6.954;2023-05-07T03:18:20;14.20;60.00
6270;DHT22;3168;51.684;6.954;2023-05-07T03:20:47;14.20;60.00
6270;DHT22;3168;51.684;6.954;2023-05-07T03:23:12;14.20;60.00
6270;DHT22;3168;51.684;6.954;2023-05-07T03:25:37;14.30;57.50
6270;DHT22;3168;51.684;6.954;2023-05-07T03:28:03;14.20;59.60
6270;DHT22;3168;51.684;6.954;2023-05-07T03:30:30;14.20;59.70
6270;DHT22;3168;51.684;6.954;2023-05-07T03:32:56;14.30;59.40
6270;DHT22;3168;51.684;6.954;2023-05-07T03:35:22;14.30;55.90
6270;DHT22;3168;51.684;6.954;2023-05-07T03:37:47;14.30;51.50
6270;DHT22;3168;51.684;6.954;2023-05-07T03:40:13;14.30;48.80
6270;DHT22;3168;51.684;6.954;2023-05-07T03:42:39;14.20;48.20
6270;DHT22;3168;51.684;6.954;2023-05-07T03:45:06;14.20;49.40
6270;DHT22;3168;51.684;6.954;2023-05-07T03:47:32;14.10;50.90
6270;DHT22;3168;51.684;6.954;2023-05-07T03:49:57;14.10;55.60
6270;DHT22;3168;51.684;6.954;2023-05-07T03:52:23;14.00;55.20
6270;DHT22;3168;51.684;6.954;2023-05-07T03:54:49;14.00;56.70
6270;DHT22;3168;51.684;6.954;2023-05-07T03:57:15;14.00;57.20
6270;DHT22;3168;51.684;6.954;2023-05-07T03:59:41;13.90;58.10
6270;DHT22;3168;51.684;6.954;2023-05-07T04:02:07;13.80;59.70
6270;DHT22;3168;51.684;6.954;2023-05-07T04:04:33;13.80;64.30
6270;DHT22;3168;51.684;6.954;2023-05-07T04:06:58;13.80;66.70
6270;DHT22;3168;51.684;6.954;2023-05-07T04:09:25;13.80;65.90
6270;DHT22;3168;51.684;6.954;2023-05-07T04:11:51;13.70;69.10
6270;DHT22;3168;51.684;6.954;2023-05-07T04:14:17;13.80;69.10
6270;DHT22;3168;51.684;6.954;2023-05-07T04:16:43;13.80;69.10
6270;DHT22;3168;51.684;6.954;2023-05-07T04:19:09;13.80;69.80
6270;DHT22;3168;51.684;6.954;2023-05-07T04:21:35;13.70;69.10
6270;DHT22;3168;51.684;6.954;2023-05-07T04:24:02;13.70;70.80
6270;DHT22;3168;51.684;6.954;2023-05-07T04:26:27;13.70;72.40
6270;DHT22;3168;51.684;6.954;2023-05-07T04:28:52;13.70;73.60
6270;DHT22;3168;51.684;6.954;2023-05-07T04:31:18;13.70;74.80
6270;DHT22;3168;51.684;6.954;2023-05-07T04:33:45;13.70;77.70
6270;DHT22;3168;51.684;6.954;2023-05-07T04:36:11;13.70;77.70
6270;DHT22;3168;51.684;6.954;2023-05-07T04:38:37;13.80;77.90
6270;DHT22;3168;51.684;6.954;2023-05-07T04:41:03;13.80;75.30
6270;DHT22;3168;51.684;6.954;2023-05-07T04:43:28;13.70;73.00
6270;DHT22;3168;51.684;6.954;2023-05-07T04:45:54;13.80;76.90
6270;DHT22;3168;51.684;6.954;2023-05-07T04:48:20;13.90;75.20
6270;DHT22;3168;51.684;6.954;2023-05-07T04:50:47;13.90;73.80
6270;DHT22;3168;51.684;6.954;2023-05-07T04:53:12;13.80;71.70
6270;DHT22;3168;51.684;6.954;2023-05-07T04:55:38;13.80;72.40
6270;DHT22;3168;51.684;6.954;2023-05-07T04:58:04;13.90;72.90
6270;DHT22;3168;51.684;6.954;2023-05-07T05:00:30;13.90;69.70
6270;DHT22;3168;51.684;6.954;2023-05-07T05:02:56;14.00;67.80
6270;DHT22;3168;51.684;6.954;2023-05-07T05:05:22;14.00;67.20
6270;DHT22;3168;51.684;6.954;2023-05-07T05:07:48;14.20;67.30
6270;DHT22;3168;51.684;6.954;2023-05-07T05:10:14;14.20;60.50
6270;DHT22;3168;51.684;6.954;2023-05-07T05:12:40;14.20;55.60
6270;DHT22;3168;51.684;6.954;2023-05-07T05:15:06;14.20;57.40
6270;DHT22;3168;51.684;6.954;2023-05-07T05:17:32;14.30;54.40
6270;DHT22;3168;51.684;6.954;2023-05-07T05:19:58;14.20;49.70
6270;DHT22;3168;51.684;6.954;2023-05-07T05:22:24;14.20;50.90
6270;DHT22;3168;51.684;6.954;2023-05-07T05:24:50;14.10;52.50
6270;DHT22;3168;51.684;6.954;2023-05-07T05:27:16;14.10;52.70
6270;DHT22;3168;51.684;6.954;2023-05-07T05:29:42;14.10;55.50
6270;DHT22;3168;51.684;6.954;2023-05-07T05:32:07;14.10;55.60
6270;DHT22;3168;51.684;6.954;2023-05-07T05:34:33;14.20;56.30
6270;DHT22;3168;51.684;6.954;2023-05-07T05:36:59;14.20;56.50
6270;DHT22;3168;51.684;6.954;2023-05-07T05:39:25;14.20;55.50
6270;DHT22;3168;51.684;6.954;2023-05-07T05:41:51;14.20;55.30
6270;DHT22;3168;51.684;6.954;2023-05-07T05:44:17;14.30;54.50
6270;DHT22;3168;51.684;6.954;2023-05-07T05:46:42;14.40;52.20
6270;DHT22;3168;51.684;6.954;2023-05-07T05:49:08;14.40;51.30
6270;DHT22;3168;51.684;6.954;2023-05-07T05:51:34;14.50;52.10
6270;DHT22;3168;51.684;6.954;2023-05-07T05:54:00;14.70;51.00
6270;DHT22;3168;51.684;6.954;2023-05-07T05:56:26;14.90;37.50
6270;DHT22;3168;51.684;6.954;2023-05-07T05:58:51;15.00;28.80
6270;DHT22;3168;51.684;6.954;2023-05-07T06:01:18;15.20;23.60
6270;DHT22;3168;51.684;6.954;2023-05-07T06:03:43;15.20;16.80
6270;DHT22;3168;51.684;6.954;2023-05-07T06:06:09;15.20;18.70
6270;DHT22;3168;51.684;6.954;2023-05-07T06:08:35;15.30;15.30
6270;DHT22;3168;51.684;6.954;2023-05-07T06:11:01;15.30;16.90
6270;DHT22;3168;51.684;6.954;2023-05-07T06:13:27;15.40;14.80
6270;DHT22;3168;51.684;6.954;2023-05-07T06:15:52;15.60;9.80
6270;DHT22;3168;51.684;6.954;2023-05-07T06:18:18;15.60;8.50
6270;DHT22;3168;51.684;6.954;2023-05-07T06:20:44;15.70;4.80
6270;DHT22;3168;51.684;6.954;2023-05-07T06:23:10;15.80;1.00
6270;DHT22;3168;51.684;6.954;2023-05-07T06:25:35;15.60;1.00
6270;DHT22;3168;51.684;6.954;2023-05-07T06:28:02;15.50;8.90
6270;DHT22;3168;51.684;6.954;2023-05-07T06:30:28;15.50;8.80
6270;DHT22;3168;51.684;6.954;2023-05-07T06:32:54;15.60;7.90
6270;DHT22;3168;51.684;6.954;2023-05-07T06:35:20;15.60;11.90
6270;DHT22;3168;51.684;6.954;2023-05-07T06:37:46;15.60;12.20
6270;DHT22;3168;51.684;6.954;2023-05-07T06:40:12;15.80;1.00
6270;DHT22;3168;51.684;6.954;2023-05-07T06:42:38;15.70;3.30
6270;DHT22;3168;51.684;6.954;2023-05-07T06:45:04;16.00;1.00
6270;DHT22;3168;51.684;6.954;2023-05-07T06:47:30;16.00;1.00
6270;DHT22;3168;51.684;6.954;2023-05-07T06:49:56;16.00;1.00
6270;DHT22;3168;51.684;6.954;2023-05-07T06:52:22;16.10;1.00
6270;DHT22;3168;51.684;6.954;2023-05-07T06:54:49;16.10;1.00
6270;DHT22;3168;51.684;6.954;2023-05-07T06:57:15;16.20;1.00
6270;DHT22;3168;51.684;6.954;2023-05-07T06:59:41;16.30;1.00
6270;DHT22;3168;51.684;6.954;2023-05-07T07:02:06;16.40;1.00
6270;DHT22;3168;51.684;6.954;2023-05-07T07:04:32;16.20;1.00
6270;DHT22;3168;51.684;6.954;2023-05-07T07:06:58;16.20;1.00
6270;DHT22;3168;51.684;6.954;2023-05-07T07:09:25;16.30;1.00
6270;DHT22;3168;51.684;6.954;2023-05-07T07:11:51;16.30;1.00
6270;DHT22;3168;51.684;6.954;2023-05-07T07:14:16;16.40;1.00
6270;DHT22;3168;51.684;6.954;2023-05-07T07:16:42;16.60;1.00
6270;DHT22;3168;51.684;6.954;2023-05-07T07:19:08;16.70;1.00
6270;DHT22;3168;51.684;6.954;2023-05-07T07:21:34;16.60;1.00
6270;DHT22;3168;51.684;6.954;2023-05-07T07:24:00;16.60;1.00
6270;DHT22;3168;51.684;6.954;2023-05-07T07:26:25;16.40;1.00
6270;DHT22;3168;51.684;6.954;2023-05-07T07:28:51;16.40;1.00
6270;DHT22;3168;51.684;6.954;2023-05-07T07:31:17;16.40;1.00
6270;DHT22;3168;51.684;6.954;2023-05-07T07:33:43;16.70;1.00
6270;DHT22;3168;51.684;6.954;2023-05-07T07:36:09;16.60;1.00
6270;DHT22;3168;51.684;6.954;2023-05-07T07:38:35;16.70;1.00
6270;DHT22;3168;51.684;6.954;2023-05-07T07:41:01;16.90;1.00
6270;DHT22;3168;51.684;6.954;2023-05-07T07:43:26;17.20;1.00
6270;DHT22;3168;51.684;6.954;2023-05-07T07:45:52;17.30;1.00
6270;DHT22;3168;51.684;6.954;2023-05-07T07:48:18;17.30;1.00
6270;DHT22;3168;51.684;6.954;2023-05-07T07:50:44;17.30;1.00
6270;DHT22;3168;51.684;6.954;2023-05-07T07:53:10;17.30;1.00
6270;DHT22;3168;51.684;6.954;2023-05-07T07:55:38;17.50;1.00
6270;DHT22;3168;51.684;6.954;2023-05-07T07:58:08;17.60;1.00
6270;DHT22;3168;51.684;6.954;2023-05-07T08:00:39;17.40;1.00
6270;DHT22;3168;51.684;6.954;2023-05-07T08:03:05;17.40;1.00
6270;DHT22;3168;51.684;6.954;2023-05-07T08:05:41;17.40;1.00
6270;DHT22;3168;51.684;6.954;2023-05-07T08:08:17;17.30;1.00
6270;DHT22;3168;51.684;6.954;2023-05-07T08:10:49;17.50;1.00
6270;DHT22;3168;51.684;6.954;2023-05-07T08:13:19;17.50;1.00
6270;DHT22;3168;51.684;6.954;2023-05-07T08:15:50;17.70;1.00
6270;DHT22;3168;51.684;6.954;2023-05-07T08:18:26;17.80;1.00
6270;DHT22;3168;51.684;6.954;2023-05-07T08:21:03;17.90;1.00
6270;DHT22;3168;51.684;6.954;2023-05-07T08:23:33;18.10;1.00
6270;DHT22;3168;51.684;6.954;2023-05-07T08:26:04;18.30;1.00
6270;DHT22;3168;51.684;6.954;2023-05-07T08:28:40;18.40;1.00
6270;DHT22;3168;51.684;6.954;2023-05-07T08:31:16;18.70;1.00
6270;DHT22;3168;51.684;6.954;2023-05-07T08:33:49;19.00;1.00
6270;DHT22;3168;51.684;6.954;2023-05-07T08:36:19;19.00;1.00
6270;DHT22;3168;51.684;6.954;2023-05-07T08:38:51;18.80;1.00
6270;DHT22;3168;51.684;6.954;2023-05-07T08:41:17;18.60;1.00
6270;DHT22;3168;51.684;6.954;2023-05-07T08:43:48;18.60;1.00
6270;DHT22;3168;51.684;6.954;2023-05-07T08:46:16;18.80;1.00
6270;DHT22;3168;51.684;6.954;2023-05-07T08:48:39;18.60;1.00
6270;DHT22;3168;51.684;6.954;2023-05-07T08:51:05;18.60;1.00
6270;DHT22;3168;51.684;6.954;2023-05-07T08:53:31;18.60;1.00
6270;DHT22;3168;51.684;6.954;2023-05-07T08:55:57;18.40;1.00
6270;DHT22;3168;51.684;6.954;2023-05-07T08:58:28;18.50;1.00
6270;DHT22;3168;51.684;6.954;2023-05-07T09:01:00;18.60;1.00
6270;DHT22;3168;51.684;6.954;2023-05-07T09:03:25;18.80;1.00
6270;DHT22;3168;51.684;6.954;2023-05-07T09:05:51;18.80;1.00
6270;DHT22;3168;51.684;6.954;2023-05-07T09:08:17;18.90;1.00
6270;DHT22;3168;51.684;6.954;2023-05-07T09:10:42;18.90;1.00
6270;DHT22;3168;51.684;6.954;2023-05-07T09:13:08;18.90;1.00
6270;DHT22;3168;51.684;6.954;2023-05-07T09:15:34;18.70;1.00
6270;DHT22;3168;51.684;6.954;2023-05-07T09:18:00;18.50;1.00
6270;DHT22;3168;51.684;6.954;2023-05-07T09:20:27;18.60;1.00
6270;DHT22;3168;51.684;6.954;2023-05-07T09:22:55;18.70;1.00
6270;DHT22;3168;51.684;6.954;2023-05-07T09:25:27;19.10;1.00
6270;DHT22;3168;51.684;6.954;2023-05-07T09:27:44;19.20;1.00
6270;DHT22;3168;51.684;6.954;2023-05-07T09:30:10;19.40;1.00
6270;DHT22;3168;51.684;6.954;2023-05-07T09:32:37;19.30;1.00
6270;DHT22;3168;51.684;6.954;2023-05-07T09:35:03;19.30;1.00
6270;DHT22;3168;51.684;6.954;2023-05-07T09:37:30;19.20;1.00
6270;DHT22;3168;51.684;6.954;2023-05-07T09:39:55;19.30;1.00
6270;DHT22;3168;51.684;6.954;2023-05-07T09:42:22;19.30;1.00
6270;DHT22;3168;51.684;6.954;2023-05-07T09:44:48;19.50;1.00
6270;DHT22;3168;51.684;6.954;2023-05-07T09:47:16;19.80;1.00
6270;DHT22;3168;51.684;6.954;2023-05-07T09:49:40;20.20;1.00
6270;DHT22;3168;51.684;6.954;2023-05-07T09:52:06;20.00;1.00
6270;DHT22;3168;51.684;6.954;2023-05-07T09:54:32;20.10;1.00
6270;DHT22;3168;51.684;6.954;2023-05-07T09:56:57;20.00;1.00
6270;DHT22;3168;51.684;6.954;2023-05-07T09:59:23;19.80;1.00
6270;DHT22;3168;51.684;6.954;2023-05-07T10:01:49;19.90;1.00
6270;DHT22;3168;51.684;6.954;2023-05-07T10:04:15;20.30;1.00
6270;DHT22;3168;51.684;6.954;2023-05-07T10:06:40;20.60;1.00
6270;DHT22;3168;51.684;6.954;2023-05-07T10:09:06;20.60;1.00
6270;DHT22;3168;51.684;6.954;2023-05-07T10:11:34;20.90;1.00
6270;DHT22;3168;51.684;6.954;2023-05-07T10:14:00;20.90;1.00
6270;DHT22;3168;51.684;6.954;2023-05-07T10:16:25;20.70;1.00
6270;DHT22;3168;51.684;6.954;2023-05-07T10:18:51;20.50;1.00
6270;DHT22;3168;51.684;6.954;2023-05-07T10:21:18;20.50;1.00
6270;DHT22;3168;51.684;6.954;2023-05-07T10:23:45;20.60;1.00
6270;DHT22;3168;51.684;6.954;2023-05-07T10:26:10;20.60;1.00
6270;DHT22;3168;51.684;6.954;2023-05-07T10:28:38;21.00;1.00
6270;DHT22;3168;51.684;6.954;2023-05-07T10:31:23;21.00;1.00
6270;DHT22;3168;51.684;6.954;2023-05-07T10:33:44;21.30;1.00
6270;DHT22;3168;51.684;6.954;2023-05-07T10:36:09;21.40;1.00
6270;DHT22;3168;51.684;6.954;2023-05-07T10:38:35;21.20;1.00
6270;DHT22;3168;51.684;6.954;2023-05-07T10:41:01;20.40;1.00
6270;DHT22;3168;51.684;6.954;2023-05-07T10:43:37;20.10;1.00
6270;DHT22;3168;51.684;6.954;2023-05-07T10:48:31;20.70;1.00
6270;DHT22;3168;51.684;6.954;2023-05-07T10:53:35;21.10;1.00
6270;DHT22;3168;51.684;6.954;2023-05-07T10:56:24;21.00;1.00
6270;DHT22;3168;51.684;6.954;2023-05-07T10:58:50;21.30;1.00
6270;DHT22;3168;51.684;6.954;2023-05-07T11:01:16;21.50;1.00
6270;DHT22;3168;51.684;6.954;2023-05-07T11:06:20;21.50;1.00
6270;DHT22;3168;51.684;6.954;2023-05-07T11:08:55;21.30;1.00
6270;DHT22;3168;51.684;6.954;2023-05-07T11:11:43;21.40;1.00
6270;DHT22;3168;51.684;6.954;2023-05-07T11:13:47;21.70;1.00
6270;DHT22;3168;51.684;6.954;2023-05-07T11:16:17;21.70;1.00
6270;DHT22;3168;51.684;6.954;2023-05-07T11:18:46;21.70;1.00
6270;DHT22;3168;51.684;6.954;2023-05-07T11:21:11;21.80;1.00
6270;DHT22;3168;51.684;6.954;2023-05-07T11:23:56;21.40;1.00
6270;DHT22;3168;51.684;6.954;2023-05-07T11:26:21;21.50;1.00
6270;DHT22;3168;51.684;6.954;2023-05-07T11:28:47;21.60;1.00
6270;DHT22;3168;51.684;6.954;2023-05-07T11:31:13;21.60;1.00
6270;DHT22;3168;51.684;6.954;2023-05-07T11:33:39;21.70;1.00
6270;DHT22;3168;51.684;6.954;2023-05-07T11:36:05;22.00;1.00
6270;DHT22;3168;51.684;6.954;2023-05-07T11:38:34;22.10;1.00
6270;DHT22;3168;51.684;6.954;2023-05-07T11:40:58;22.20;1.00
6270;DHT22;3168;51.684;6.954;2023-05-07T11:43:23;22.50;1.00
6270;DHT22;3168;51.684;6.954;2023-05-07T11:45:50;22.50;1.00
6270;DHT22;3168;51.684;6.954;2023-05-07T11:48:15;22.50;1.00
6270;DHT22;3168;51.684;6.954;2023-05-07T11:50:59;22.40;1.00
6270;DHT22;3168;51.684;6.954;2023-05-07T11:53:20;22.30;1.00
6270;DHT22;3168;51.684;6.954;2023-05-07T11:55:45;22.70;1.00
6270;DHT22;3168;51.684;6.954;2023-05-07T11:58:12;22.50;1.00
6270;DHT22;3168;51.684;6.954;2023-05-07T12:00:38;22.70;1.00
6270;DHT22;3168;51.684;6.954;2023-05-07T12:03:04;22.80;1.00
6270;DHT22;3168;51.684;6.954;2023-05-07T12:05:30;23.10;1.00
6270;DHT22;3168;51.684;6.954;2023-05-07T12:07:57;23.00;1.00
6270;DHT22;3168;51.684;6.954;2023-05-07T12:10:27;22.70;1.00
6270;DHT22;3168;51.684;6.954;2023-05-07T12:12:53;22.70;1.00
6270;DHT22;3168;51.684;6.954;2023-05-07T12:15:22;22.50;1.00
6270;DHT22;3168;51.684;6.954;2023-05-07T12:17:44;22.60;1.00
6270;DHT22;3168;51.684;6.954;2023-05-07T12:20:11;22.60;1.00
6270;DHT22;3168;51.684;6.954;2023-05-07T12:22:36;22.80;1.00
6270;DHT22;3168;51.684;6.954;2023-05-07T12:25:03;22.70;1.00
6270;DHT22;3168;51.684;6.954;2023-05-07T12:27:29;22.80;1.00
6270;DHT22;3168;51.684;6.954;2023-05-07T12:29:56;22.80;1.00
6270;DHT22;3168;51.684;6.954;2023-05-07T12:32:21;22.70;1.00
6270;DHT22;3168;51.684;6.954;2023-05-07T12:34:47;22.60;1.00
6270;DHT22;3168;51.684;6.954;2023-05-07T12:37:12;22.70;1.00
6270;DHT22;3168;51.684;6.954;2023-05-07T12:39:38;23.00;1.00
6270;DHT22;3168;51.684;6.954;2023-05-07T12:42:04;22.90;1.00
6270;DHT22;3168;51.684;6.954;2023-05-07T12:44:31;22.70;1.00
6270;DHT22;3168;51.684;6.954;2023-05-07T12:46:56;22.80;1.00
6270;DHT22;3168;51.684;6.954;2023-05-07T12:49:23;22.80;1.00
6270;DHT22;3168;51.684;6.954;2023-05-07T12:51:48;22.90;1.00
6270;DHT22;3168;51.684;6.954;2023-05-07T12:54:27;22.80;1.00
6270;DHT22;3168;51.684;6.954;2023-05-07T12:56:40;23.10;1.00
6270;DHT22;3168;51.684;6.954;2023-05-07T12:59:06;22.90;1.00
6270;DHT22;3168;51.684;6.954;2023-05-07T13:01:33;22.90;1.00
6270;DHT22;3168;51.684;6.954;2023-05-07T13:04:00;22.80;1.00
6270;DHT22;3168;51.684;6.954;2023-05-07T13:06:23;22.50;1.00
6270;DHT22;3168;51.684;6.954;2023-05-07T13:08:49;22.40;1.00
6270;DHT22;3168;51.684;6.954;2023-05-07T13:11:15;22.70;1.00
6270;DHT22;3168;51.684;6.954;2023-05-07T13:13:41;22.70;1.00
6270;DHT22;3168;51.684;6.954;2023-05-07T13:16:07;22.40;1.00
6270;DHT22;3168;51.684;6.954;2023-05-07T13:18:33;22.30;1.00
6270;DHT22;3168;51.684;6.954;2023-05-07T13:20:59;22.30;1.00
6270;DHT22;3168;51.684;6.954;2023-05-07T13:23:24;22.50;1.00
6270;DHT22;3168;51.684;6.954;2023-05-07T13:25:50;22.40;1.00
6270;DHT22;3168;51.684;6.954;2023-05-07T13:28:16;22.40;1.00
6270;DHT22;3168;51.684;6.954;2023-05-07T13:30:42;22.40;1.00
6270;DHT22;3168;51.684;6.954;2023-05-07T13:33:08;22.20;1.00
6270;DHT22;3168;51.684;6.954;2023-05-07T13:35:33;22.10;1.00
6270;DHT22;3168;51.684;6.954;2023-05-07T13:37:59;22.00;1.00
6270;DHT22;3168;51.684;6.954;2023-05-07T13:40:25;22.00;1.00
6270;DHT22;3168;51.684;6.954;2023-05-07T13:42:51;21.90;1.00
6270;DHT22;3168;51.684;6.954;2023-05-07T13:45:18;21.70;1.00
6270;DHT22;3168;51.684;6.954;2023-05-07T13:47:44;21.70;1.00
6270;DHT22;3168;51.684;6.954;2023-05-07T13:50:10;21.90;1.00
6270;DHT22;3168;51.684;6.954;2023-05-07T13:52:35;21.90;1.00
6270;DHT22;3168;51.684;6.954;2023-05-07T13:55:01;21.50;1.00
6270;DHT22;3168;51.684;6.954;2023-05-07T13:57:27;21.20;1.00
6270;DHT22;3168;51.684;6.954;2023-05-07T13:59:53;21.20;1.00
6270;DHT22;3168;51.684;6.954;2023-05-07T14:02:19;21.20;1.00
6270;DHT22;3168;51.684;6.954;2023-05-07T14:04:45;21.10;1.00
6270;DHT22;3168;51.684;6.954;2023-05-07T14:07:11;21.20;1.00
6270;DHT22;3168;51.684;6.954;2023-05-07T14:09:37;21.10;1.00
6270;DHT22;3168;51.684;6.954;2023-05-07T14:12:04;21.20;1.00
6270;DHT22;3168;51.684;6.954;2023-05-07T14:14:30;21.10;1.00
6270;DHT22;3168;51.684;6.954;2023-05-07T14:16:55;21.10;1.00
6270;DHT22;3168;51.684;6.954;2023-05-07T14:19:21;21.10;1.00
6270;DHT22;3168;51.684;6.954;2023-05-07T14:21:47;21.20;1.00
6270;DHT22;3168;51.684;6.954;2023-05-07T14:24:13;21.10;1.00
6270;DHT22;3168;51.684;6.954;2023-05-07T14:26:39;21.10;1.00
6270;DHT22;3168;51.684;6.954;2023-05-07T14:29:05;21.20;1.00
6270;DHT22;3168;51.684;6.954;2023-05-07T14:31:33;21.10;1.00
6270;DHT22;3168;51.684;6.954;2023-05-07T14:36:44;21.00;1.00
6270;DHT22;3168;51.684;6.954;2023-05-07T14:39:09;21.10;1.00
6270;DHT22;3168;51.684;6.954;2023-05-07T14:41:35;21.00;1.00
6270;DHT22;3168;51.684;6.954;2023-05-07T14:44:01;21.00;1.00
6270;DHT22;3168;51.684;6.954;2023-05-07T14:49:11;21.00;1.00
6270;DHT22;3168;51.684;6.954;2023-05-07T14:51:37;21.10;1.00
6270;DHT22;3168;51.684;6.954;2023-05-07T14:54:03;21.10;1.00
6270;DHT22;3168;51.684;6.954;2023-05-07T14:56:29;21.10;1.00
6270;DHT22;3168;51.684;6.954;2023-05-07T14:58:54;21.30;1.00
6270;DHT22;3168;51.684;6.954;2023-05-07T15:01:20;21.30;1.00
6270;DHT22;3168;51.684;6.954;2023-05-07T15:03:46;21.30;1.00
6270;DHT22;3168;51.684;6.954;2023-05-07T15:06:13;21.10;1.00
6270;DHT22;3168;51.684;6.954;2023-05-07T15:08:38;21.10;1.00
6270;DHT22;3168;51.684;6.954;2023-05-07T15:11:05;20.80;1.00
6270;DHT22;3168;51.684;6.954;2023-05-07T15:13:31;20.70;1.00
6270;DHT22;3168;51.684;6.954;2023-05-07T15:15:56;20.70;1.00
6270;DHT22;3168;51.684;6.954;2023-05-07T15:18:23;20.80;1.00
6270;DHT22;3168;51.684;6.954;2023-05-07T15:20:48;20.70;1.00
6270;DHT22;3168;51.684;6.954;2023-05-07T15:23:14;20.60;1.00
6270;DHT22;3168;51.684;6.954;2023-05-07T15:25:40;20.50;1.00
6270;DHT22;3168;51.684;6.954;2023-05-07T15:28:06;20.50;1.00
6270;DHT22;3168;51.684;6.954;2023-05-07T15:30:31;20.70;1.00
6270;DHT22;3168;51.684;6.954;2023-05-07T15:32:57;20.70;1.00
6270;DHT22;3168;51.684;6.954;2023-05-07T15:35:23;20.60;1.00
6270;DHT22;3168;51.684;6.954;2023-05-07T15:37:49;20.60;1.00
6270;DHT22;3168;51.684;6.954;2023-05-07T15:40:16;20.50;1.00
6270;DHT22;3168;51.684;6.954;2023-05-07T15:42:42;20.50;1.00
6270;DHT22;3168;51.684;6.954;2023-05-07T15:45:08;20.50;1.00
6270;DHT22;3168;51.684;6.954;2023-05-07T15:47:34;20.30;1.00
6270;DHT22;3168;51.684;6.954;2023-05-07T15:50:00;20.10;1.00
6270;DHT22;3168;51.684;6.954;2023-05-07T15:52:27;20.10;1.00
6270;DHT22;3168;51.684;6.954;2023-05-07T15:54:53;20.10;1.00
6270;DHT22;3168;51.684;6.954;2023-05-07T15:57:19;20.10;1.00
6270;DHT22;3168;51.684;6.954;2023-05-07T15:59:44;20.10;1.00
6270;DHT22;3168;51.684;6.954;2023-05-07T16:02:10;20.00;1.00
6270;DHT22;3168;51.684;6.954;2023-05-07T16:04:36;20.00;1.00
6270;DHT22;3168;51.684;6.954;2023-05-07T16:07:02;19.90;1.00
6270;DHT22;3168;51.684;6.954;2023-05-07T16:09:28;20.00;1.00
6270;DHT22;3168;51.684;6.954;2023-05-07T16:11:54;19.90;1.00
6270;DHT22;3168;51.684;6.954;2023-05-07T16:14:19;19.90;1.00
6270;DHT22;3168;51.684;6.954;2023-05-07T16:16:45;19.90;1.00
6270;DHT22;3168;51.684;6.954;2023-05-07T16:19:12;19.90;1.00